createdAt,value
2022-09-30T00:04:53.302Z,6.95
2022-09-30T00:09:54.095Z,7.40
2022-09-30T00:14:56.579Z,7.05
2022-09-30T00:19:57.305Z,7.63
2022-09-30T00:24:58.106Z,6.90
2022-09-30T00:30:00.219Z,6.95
2022-09-30T00:35:00.969Z,6.85
2022-09-30T00:40:01.839Z,6.55
2022-09-30T00:45:08.148Z,7.07
2022-09-30T00:50:20.137Z,7.65
2022-09-30T00:55:50.879Z,7.00
2022-09-30T01:00:53.192Z,7.55
2022-09-30T01:05:54.706Z,6.65
2022-09-30T01:10:55.795Z,7.35
2022-09-30T01:16:17.857Z,6.97
2022-09-30T01:21:46.708Z,7.32
2022-09-30T01:27:06.096Z,6.63
2022-09-30T01:32:19.081Z,7.40
2022-09-30T01:37:29.247Z,7.03
2022-09-30T01:42:40.428Z,8.48
2022-09-30T01:47:47.164Z,7.63
2022-09-30T01:52:57.249Z,7.63
2022-09-30T01:58:01.889Z,8.07
2022-09-30T02:03:10.837Z,7.85
2022-09-30T02:08:30.167Z,8.00
2022-09-30T02:13:37.350Z,8.50
2022-09-30T02:18:42.707Z,8.63
2022-09-30T02:23:46.855Z,7.90
2022-09-30T02:28:52.873Z,7.28
2022-09-30T02:33:59.551Z,8.05
2022-09-30T02:39:04.234Z,8.43
2022-09-30T02:44:05.691Z,7.78
2022-09-30T02:49:12.626Z,7.85
2022-09-30T02:54:20.657Z,8.50
2022-09-30T02:59:22.874Z,8.68
2022-09-30T03:04:28.175Z,8.38
2022-09-30T03:09:29.340Z,8.57
2022-09-30T03:14:43.271Z,9.27
2022-09-30T03:20:08.753Z,8.70
2022-09-30T03:25:28.512Z,8.75
2022-09-30T03:30:33.054Z,8.75
2022-09-30T03:35:43.766Z,7.65
2022-09-30T03:40:54.403Z,7.93
2022-09-30T03:46:02.490Z,8.88
2022-09-30T03:51:06.617Z,8.68
2022-09-30T03:56:07.855Z,9.25
2022-09-30T04:01:09.209Z,9.25
2022-09-30T04:06:14.562Z,10.43
2022-09-30T04:11:16.218Z,9.88
2022-09-30T04:16:16.983Z,9.82
2022-09-30T04:21:19.128Z,9.10
2022-09-30T04:26:20.574Z,8.68
2022-09-30T04:31:21.605Z,8.85
2022-09-30T04:36:24.004Z,9.60
2022-09-30T04:41:25.063Z,9.45
2022-09-30T04:46:25.903Z,10.10
2022-09-30T04:51:28.274Z,10.90
2022-09-30T04:56:29.072Z,11.20
2022-09-30T05:01:29.845Z,10.15
2022-09-30T05:06:31.944Z,9.75
2022-09-30T05:11:32.732Z,10.38
2022-09-30T05:16:33.562Z,11.05
2022-09-30T05:21:35.845Z,11.00
2022-09-30T05:26:36.662Z,10.80
2022-09-30T05:31:37.582Z,10.38
2022-09-30T05:36:40.015Z,11.18
2022-09-30T05:41:40.807Z,12.40
2022-09-30T05:46:41.589Z,11.50
2022-09-30T05:51:44.315Z,11.63
2022-09-30T05:56:45.093Z,10.32
2022-09-30T06:01:45.923Z,10.73
2022-09-30T06:06:48.696Z,11.40
2022-09-30T06:11:49.453Z,11.20
2022-09-30T06:16:50.638Z,10.93
2022-09-30T06:21:52.928Z,11.05
2022-09-30T06:26:54.332Z,11.20
2022-09-30T06:31:55.255Z,11.10
2022-09-30T06:36:57.482Z,10.75
2022-09-30T06:41:58.346Z,11.40
2022-09-30T06:46:59.810Z,10.20
2022-09-30T06:52:02.431Z,9.13
2022-09-30T06:57:03.210Z,9.65
2022-09-30T07:02:04.089Z,8.80
2022-09-30T07:07:06.918Z,8.55
2022-09-30T07:12:07.709Z,8.82
2022-09-30T07:17:08.460Z,7.70
2022-09-30T07:22:30.162Z,7.70
2022-09-30T07:27:33.536Z,7.50
2022-09-30T07:32:34.337Z,8.25
2022-09-30T07:37:37.035Z,7.97
2022-09-30T07:42:38.953Z,7.63
2022-09-30T07:47:39.778Z,6.75
2022-09-30T07:52:41.870Z,6.78
2022-09-30T07:57:42.655Z,7.18
2022-09-30T08:02:43.417Z,7.50
2022-09-30T08:07:45.534Z,7.25
2022-09-30T08:12:46.270Z,7.05
2022-09-30T08:17:47.004Z,6.55
2022-09-30T08:22:49.635Z,6.65
2022-09-30T08:27:50.771Z,6.13
2022-09-30T08:32:51.579Z,6.47
2022-09-30T08:37:54.737Z,5.65
2022-09-30T08:43:13.773Z,5.82
2022-09-30T08:48:31.050Z,6.32
2022-09-30T08:53:37.662Z,5.53
2022-09-30T08:58:42.124Z,5.47
2022-09-30T09:03:43.121Z,5.18
2022-09-30T09:08:59.547Z,5.63
2022-09-30T09:14:04.013Z,4.97
2022-09-30T09:19:10.771Z,5.63
2022-09-30T09:24:17.328Z,5.30
2022-09-30T09:29:35.486Z,5.60
2022-09-30T09:34:39.642Z,4.53
2022-09-30T09:40:09.759Z,4.35
2022-09-30T09:45:17.883Z,4.10
2022-09-30T09:50:25.219Z,4.07
2022-09-30T09:55:27.653Z,3.75
2022-09-30T10:00:46.291Z,4.20
2022-09-30T10:05:59.729Z,3.10
2022-09-30T10:11:04.288Z,3.50
2022-09-30T10:16:06.235Z,3.13
2022-09-30T10:21:20.332Z,3.33
2022-09-30T10:26:24.717Z,2.83
2022-09-30T10:31:28.341Z,3.25
2022-09-30T10:36:33.401Z,3.22
2022-09-30T10:41:38.095Z,3.30
2022-09-30T10:46:41.370Z,3.17
2022-09-30T10:51:47.133Z,2.15
2022-09-30T10:56:54.565Z,2.28
2022-09-30T11:02:05.235Z,2.30
2022-09-30T11:07:17.922Z,2.22
2022-09-30T11:12:26.983Z,1.85
2022-09-30T11:17:33.853Z,1.90
2022-09-30T11:22:47.887Z,2.60
2022-09-30T11:28:09.652Z,2.22
2022-09-30T11:33:36.242Z,1.80
2022-09-30T11:39:05.370Z,2.17
2022-09-30T11:44:23.032Z,2.10
2022-09-30T11:49:39.408Z,2.58
2022-09-30T11:55:00.972Z,2.30
2022-09-30T12:00:08.244Z,2.00
2022-09-30T12:05:20.690Z,1.63
2022-09-30T12:10:25.740Z,1.40
2022-09-30T12:15:28.710Z,1.40
2022-09-30T12:20:33.480Z,1.80
2022-09-30T12:25:41.698Z,1.40
2022-09-30T12:30:44.453Z,1.67
2022-09-30T12:36:20.462Z,1.30
2022-09-30T12:41:35.325Z,1.67
2022-09-30T12:47:03.891Z,1.13
2022-09-30T12:52:07.656Z,1.13
2022-09-30T12:57:10.231Z,1.38
2022-09-30T13:02:31.831Z,1.60
2022-09-30T13:07:34.466Z,1.60
2022-09-30T13:12:46.753Z,1.27
2022-09-30T13:17:51.562Z,1.50
2022-09-30T13:22:59.979Z,1.63
2022-09-30T13:28:29.879Z,1.83
2022-09-30T13:33:47.204Z,1.27
2022-09-30T13:39:09.697Z,1.88
2022-09-30T13:44:17.771Z,1.42
2022-09-30T13:49:23.697Z,2.80
2022-09-30T13:54:30.126Z,1.38
2022-09-30T14:00:01.788Z,1.38
2022-09-30T14:05:36.381Z,2.40
2022-09-30T14:10:54.346Z,1.65
2022-09-30T14:16:36.934Z,1.77
2022-09-30T14:21:43.033Z,1.65
2022-09-30T14:27:01.985Z,1.60
2022-09-30T14:32:12.678Z,1.55
2022-09-30T14:37:22.755Z,1.40
2022-09-30T14:42:29.617Z,1.60
2022-09-30T14:47:32.044Z,1.25
2022-09-30T14:52:37.988Z,1.30
2022-09-30T14:57:38.905Z,1.80
2022-09-30T15:02:46.808Z,1.45
2022-09-30T15:07:49.338Z,1.40
2022-09-30T15:12:51.666Z,1.83
2022-09-30T15:17:55.446Z,1.10
2022-09-30T15:22:59.897Z,1.52
2022-09-30T15:28:00.809Z,1.30
2022-09-30T15:33:03.392Z,1.60
2022-09-30T15:38:10.942Z,1.77
2022-09-30T15:43:15.684Z,1.30
2022-09-30T15:48:36.070Z,1.60
2022-09-30T15:53:50.007Z,1.63
2022-09-30T15:58:56.510Z,1.60
2022-09-30T16:03:59.410Z,1.55
2022-09-30T16:09:06.500Z,1.58
2022-09-30T16:14:11.292Z,1.85
2022-09-30T16:19:18.392Z,1.73
2022-09-30T16:24:47.290Z,1.90
2022-09-30T16:29:48.107Z,1.80
2022-09-30T16:34:48.973Z,2.35
2022-09-30T16:39:51.496Z,2.25
2022-09-30T16:44:52.284Z,2.00
2022-09-30T16:49:53.252Z,2.00
2022-09-30T16:54:55.410Z,2.28
2022-09-30T16:59:56.274Z,2.33
2022-09-30T17:04:57.068Z,2.47
2022-09-30T17:09:59.679Z,2.83
2022-09-30T17:15:00.425Z,3.63
2022-09-30T17:20:01.277Z,2.88
2022-09-30T17:25:03.521Z,2.92
2022-09-30T17:30:05.020Z,3.20
2022-09-30T17:35:08.405Z,3.10
2022-09-30T17:40:25.164Z,2.90
2022-09-30T17:45:27.966Z,3.65
2022-09-30T17:50:29.015Z,3.55
2022-09-30T17:55:31.307Z,4.80
2022-09-30T18:00:32.602Z,5.22
2022-09-30T18:05:34.121Z,5.35
2022-09-30T18:10:38.660Z,5.95
2022-09-30T18:15:40.644Z,6.07
2022-09-30T18:20:44.913Z,6.15
2022-09-30T18:25:49.623Z,6.13
2022-09-30T18:30:50.435Z,5.70
2022-09-30T18:35:51.745Z,5.40
2022-09-30T18:40:54.545Z,5.75
2022-09-30T18:45:56.847Z,5.18
2022-09-30T18:51:03.337Z,5.97
2022-09-30T18:56:06.113Z,5.57
2022-09-30T19:01:07.780Z,6.28
2022-09-30T19:06:09.414Z,6.57
2022-09-30T19:11:14.744Z,6.72
2022-09-30T19:16:18.367Z,6.38
2022-09-30T19:21:22.169Z,6.53
2022-09-30T19:26:27.097Z,6.30
2022-09-30T19:31:28.479Z,6.30
2022-09-30T19:36:41.348Z,6.85
2022-09-30T19:41:49.986Z,6.55
2022-09-30T19:46:51.210Z,6.80
2022-09-30T19:51:53.255Z,6.55
2022-09-30T19:56:55.336Z,6.93
2022-09-30T20:01:56.190Z,7.40
2022-09-30T20:06:57.020Z,7.03
2022-09-30T20:11:59.212Z,8.27
2022-09-30T20:17:00.022Z,8.15
2022-09-30T20:22:00.911Z,7.45
2022-09-30T20:27:03.011Z,7.00
2022-09-30T20:32:04.003Z,7.15
2022-09-30T20:37:04.799Z,6.40
2022-09-30T20:42:07.496Z,6.18
2022-09-30T20:47:08.206Z,6.60
2022-09-30T20:52:08.947Z,6.53
2022-09-30T20:57:11.013Z,7.00
2022-09-30T21:02:14.099Z,5.93
2022-09-30T21:07:14.980Z,7.10
2022-09-30T21:12:17.243Z,6.70
2022-09-30T21:17:17.991Z,5.95
2022-09-30T21:22:18.767Z,6.68
2022-09-30T21:27:20.857Z,7.18
2022-09-30T21:32:21.634Z,6.82
2022-09-30T21:37:22.406Z,6.75
2022-09-30T21:42:24.515Z,6.90
2022-09-30T21:47:25.410Z,8.05
2022-09-30T21:52:28.604Z,8.30
2022-09-30T21:57:34.135Z,9.02
2022-09-30T22:02:36.291Z,7.72
2022-09-30T22:07:38.042Z,7.97
2022-09-30T22:12:40.332Z,7.82
2022-09-30T22:17:41.152Z,8.48
2022-09-30T22:22:41.877Z,8.27
2022-09-30T22:27:44.173Z,8.20
2022-09-30T22:32:44.965Z,8.98
2022-09-30T22:38:09.496Z,9.93
2022-09-30T22:43:11.564Z,8.70
2022-09-30T22:48:21.286Z,9.07
2022-09-30T22:53:22.025Z,8.57
2022-09-30T22:58:25.280Z,9.98
2022-09-30T23:03:26.952Z,8.57
2022-09-30T23:08:31.996Z,8.05
2022-09-30T23:13:34.897Z,8.70
2022-09-30T23:18:36.001Z,8.20
2022-09-30T23:23:38.125Z,8.40
2022-09-30T23:28:40.819Z,8.25
2022-09-30T23:33:47.101Z,8.15
2022-09-30T23:38:48.178Z,8.15
2022-09-30T23:43:50.280Z,8.13
2022-09-30T23:48:51.159Z,8.32
2022-09-30T23:53:51.896Z,8.00
2022-09-30T23:58:53.984Z,8.05
